createdAt,value
2019-03-30T00:00:03.590Z,78
2019-03-30T00:01:03.132Z,78
2019-03-30T00:02:03.988Z,78
2019-03-30T00:03:03.460Z,78
2019-03-30T00:04:03.540Z,78
2019-03-30T00:05:03.552Z,78
2019-03-30T00:06:03.192Z,78
2019-03-30T00:07:03.758Z,78
2019-03-30T00:08:03.350Z,78
2019-03-30T00:09:03.553Z,78
2019-03-30T00:10:03.244Z,78
2019-03-30T00:11:03.213Z,78
2019-03-30T00:12:03.166Z,78
2019-03-30T00:13:03.058Z,78
2019-03-30T00:14:03.023Z,78
2019-03-30T00:15:03.537Z,78
2019-03-30T00:16:03.366Z,78
2019-03-30T00:17:03.627Z,78
2019-03-30T00:18:03.317Z,78
2019-03-30T00:19:03.544Z,78
2019-03-30T00:20:03.457Z,78
2019-03-30T00:21:03.559Z,78
2019-03-30T00:22:03.360Z,78
2019-03-30T00:23:03.382Z,78
2019-03-30T00:24:03.506Z,78
2019-03-30T00:25:03.094Z,78
2019-03-30T00:26:03.359Z,78
2019-03-30T00:27:03.297Z,78
2019-03-30T00:28:03.606Z,78
2019-03-30T00:29:03.369Z,78
2019-03-30T00:30:03.270Z,79
2019-03-30T00:31:03.384Z,79
2019-03-30T00:32:03.444Z,79
2019-03-30T00:33:03.167Z,79
2019-03-30T00:34:03.125Z,79
2019-03-30T00:35:03.231Z,79
2019-03-30T00:36:03.078Z,79
2019-03-30T00:37:02.803Z,79
2019-03-30T00:38:03.052Z,79
2019-03-30T00:39:03.447Z,79
2019-03-30T00:40:03.295Z,79
2019-03-30T00:41:03.315Z,79
2019-03-30T00:42:03.250Z,79
2019-03-30T00:43:03.194Z,79
2019-03-30T00:44:03.385Z,79
2019-03-30T00:45:03.495Z,79
2019-03-30T00:46:03.183Z,79
2019-03-30T00:47:03.040Z,79
2019-03-30T00:48:03.401Z,79
2019-03-30T00:49:02.854Z,79
2019-03-30T00:50:03.312Z,79
2019-03-30T00:51:03.375Z,79
2019-03-30T00:52:03.405Z,79
2019-03-30T00:53:03.308Z,79
2019-03-30T00:54:03.214Z,79
2019-03-30T00:55:03.451Z,79
2019-03-30T00:56:03.211Z,79
2019-03-30T00:57:03.103Z,79
2019-03-30T00:58:03.143Z,79
2019-03-30T00:59:03.062Z,79
2019-03-30T01:00:03.156Z,79
2019-03-30T01:01:02.864Z,79
2019-03-30T01:02:03.044Z,79
2019-03-30T01:03:03.166Z,80
2019-03-30T01:04:02.921Z,80
2019-03-30T01:05:03.324Z,80
2019-03-30T01:06:03.058Z,80
2019-03-30T01:07:03.104Z,80
2019-03-30T01:08:03.009Z,80
2019-03-30T01:09:03.311Z,80
2019-03-30T01:10:03.189Z,80
2019-03-30T01:11:02.940Z,80
2019-03-30T01:12:02.939Z,80
2019-03-30T01:13:03.457Z,80
2019-03-30T01:14:02.927Z,80
2019-03-30T01:15:03.284Z,80
2019-03-30T01:16:02.734Z,80
2019-03-30T01:17:02.923Z,80
2019-03-30T01:18:03.638Z,80
2019-03-30T01:19:02.875Z,80
2019-03-30T01:20:04.050Z,80
2019-03-30T01:21:02.969Z,80
2019-03-30T01:22:02.837Z,80
2019-03-30T01:23:03.061Z,80
2019-03-30T01:24:02.881Z,80
2019-03-30T01:25:03.082Z,80
2019-03-30T01:26:02.808Z,80
2019-03-30T01:27:03.538Z,80
2019-03-30T01:28:03.588Z,80
2019-03-30T01:29:03.481Z,80
2019-03-30T01:30:04.315Z,80
2019-03-30T01:31:03.663Z,80
2019-03-30T01:32:03.572Z,80
2019-03-30T01:33:03.549Z,80
2019-03-30T01:34:03.707Z,80
2019-03-30T01:35:03.740Z,80
2019-03-30T01:36:03.552Z,80
2019-03-30T01:37:03.689Z,80
2019-03-30T01:38:02.900Z,80
2019-03-30T01:39:03.633Z,80
2019-03-30T01:40:03.083Z,80
2019-03-30T01:41:02.723Z,80
2019-03-30T01:42:03.306Z,80
2019-03-30T01:43:02.700Z,80
2019-03-30T01:44:02.810Z,80
2019-03-30T01:45:03.370Z,80
2019-03-30T01:46:03.752Z,80
2019-03-30T01:47:02.818Z,80
2019-03-30T01:48:02.778Z,80
2019-03-30T01:49:03.058Z,80
2019-03-30T01:50:18.357Z,80
2019-03-30T01:51:02.959Z,80
2019-03-30T01:52:03.504Z,80
2019-03-30T01:53:03.326Z,80
2019-03-30T01:54:03.153Z,80
2019-03-30T01:55:02.863Z,80
2019-03-30T01:56:02.931Z,80
2019-03-30T01:57:02.975Z,80
2019-03-30T01:58:02.957Z,80
2019-03-30T01:59:02.991Z,80
2019-03-30T02:00:02.959Z,80
2019-03-30T02:01:02.942Z,80
2019-03-30T02:02:03.195Z,80
2019-03-30T02:03:03.098Z,80
2019-03-30T02:04:02.772Z,80
2019-03-30T02:05:03.359Z,80
2019-03-30T02:06:03.022Z,80
2019-03-30T02:07:02.802Z,81
2019-03-30T02:08:03.026Z,81
2019-03-30T02:09:02.817Z,81
2019-03-30T02:10:03.724Z,81
2019-03-30T02:11:03.694Z,81
2019-03-30T02:12:02.897Z,81
2019-03-30T02:13:02.963Z,81
2019-03-30T02:14:03.802Z,81
2019-03-30T02:15:03.134Z,81
2019-03-30T02:16:03.372Z,81
2019-03-30T02:17:02.908Z,81
2019-03-30T02:18:03.114Z,81
2019-03-30T02:19:03.049Z,81
2019-03-30T02:20:03.290Z,81
2019-03-30T02:21:03.049Z,81
2019-03-30T02:22:03.070Z,81
2019-03-30T02:23:03.161Z,81
2019-03-30T02:24:02.932Z,81
2019-03-30T02:25:03.051Z,81
2019-03-30T02:26:03.385Z,81
2019-03-30T02:27:03.180Z,81
2019-03-30T02:28:07.459Z,81
2019-03-30T02:29:03.113Z,81
2019-03-30T02:30:03.074Z,81
2019-03-30T02:31:03.168Z,81
2019-03-30T02:32:03.145Z,81
2019-03-30T02:33:03.237Z,81
2019-03-30T02:34:02.933Z,81
2019-03-30T02:35:03.250Z,81
2019-03-30T02:36:03.095Z,81
2019-03-30T02:37:03.077Z,81
2019-03-30T02:38:03.003Z,81
2019-03-30T02:39:02.923Z,81
2019-03-30T02:40:03.104Z,81
2019-03-30T02:41:02.823Z,81
2019-03-30T02:42:03.110Z,81
2019-03-30T02:43:02.656Z,81
2019-03-30T02:44:03.177Z,81
2019-03-30T02:45:03.433Z,81
2019-03-30T02:46:03.052Z,81
2019-03-30T02:47:03.823Z,81
2019-03-30T02:48:03.751Z,81
2019-03-30T02:49:02.769Z,81
2019-03-30T02:50:02.932Z,81
2019-03-30T02:51:03.022Z,81
2019-03-30T02:52:02.828Z,81
2019-03-30T02:53:02.673Z,81
2019-03-30T02:54:03.660Z,81
2019-03-30T02:55:03.744Z,81
2019-03-30T02:56:03.783Z,81
2019-03-30T02:57:03.018Z,81
2019-03-30T02:58:03.872Z,81
2019-03-30T02:59:03.066Z,81
2019-03-30T03:00:02.863Z,81
2019-03-30T03:01:03.394Z,81
2019-03-30T03:02:03.295Z,81
2019-03-30T03:03:02.837Z,81
2019-03-30T03:04:02.993Z,81
2019-03-30T03:05:02.921Z,81
2019-03-30T03:06:03.028Z,81
2019-03-30T03:07:02.878Z,81
2019-03-30T03:08:03.320Z,81
2019-03-30T03:09:02.754Z,81
2019-03-30T03:10:02.914Z,81
2019-03-30T03:11:03.181Z,81
2019-03-30T03:12:03.755Z,81
2019-03-30T03:13:03.038Z,81
2019-03-30T03:14:03.174Z,81
2019-03-30T03:15:03.386Z,81
2019-03-30T03:16:03.509Z,81
2019-03-30T03:17:03.362Z,81
2019-03-30T03:18:03.747Z,81
2019-03-30T03:19:03.427Z,81
2019-03-30T03:20:03.288Z,81
2019-03-30T03:21:09.226Z,81
2019-03-30T03:22:03.333Z,81
2019-03-30T03:23:03.437Z,81
2019-03-30T03:24:03.407Z,81
2019-03-30T03:25:03.575Z,82
2019-03-30T03:26:03.344Z,82
2019-03-30T03:27:04.263Z,82
2019-03-30T03:28:03.187Z,82
2019-03-30T03:29:03.453Z,82
2019-03-30T03:30:03.688Z,82
2019-03-30T03:31:03.537Z,82
2019-03-30T03:32:03.692Z,82
2019-03-30T03:33:03.419Z,82
2019-03-30T03:34:03.619Z,82
2019-03-30T03:35:03.467Z,82
2019-03-30T03:36:03.285Z,82
2019-03-30T03:37:03.354Z,82
2019-03-30T03:38:03.511Z,82
2019-03-30T03:39:03.173Z,82
2019-03-30T03:40:03.372Z,82
2019-03-30T03:41:03.262Z,82
2019-03-30T03:42:03.242Z,82
2019-03-30T03:43:03.478Z,82
2019-03-30T03:44:03.097Z,82
2019-03-30T03:45:03.452Z,82
2019-03-30T03:46:03.177Z,82
2019-03-30T03:47:03.331Z,82
2019-03-30T03:48:03.083Z,82
2019-03-30T03:49:03.274Z,82
2019-03-30T03:50:03.201Z,82
2019-03-30T03:51:03.446Z,82
2019-03-30T03:52:03.364Z,82
2019-03-30T03:53:03.690Z,82
2019-03-30T03:54:02.962Z,82
2019-03-30T03:55:03.197Z,83
2019-03-30T03:56:03.008Z,83
2019-03-30T03:57:02.959Z,82
2019-03-30T03:58:03.356Z,83
2019-03-30T03:59:03.095Z,83
2019-03-30T04:00:02.887Z,83
2019-03-30T04:01:02.972Z,82
2019-03-30T04:02:02.952Z,82
2019-03-30T04:03:03.127Z,82
2019-03-30T04:04:03.417Z,82
2019-03-30T04:05:03.087Z,83
2019-03-30T04:06:03.157Z,83
2019-03-30T04:07:03.034Z,83
2019-03-30T04:08:03.093Z,83
2019-03-30T04:09:03.932Z,83
2019-03-30T04:10:03.335Z,83
2019-03-30T04:11:03.792Z,83
2019-03-30T04:12:03.491Z,83
2019-03-30T04:13:07.688Z,83
2019-03-30T04:14:04.162Z,83
2019-03-30T04:15:02.771Z,83
2019-03-30T04:16:03.841Z,83
2019-03-30T04:17:03.371Z,83
2019-03-30T04:18:03.461Z,83
2019-03-30T04:19:03.341Z,83
2019-03-30T04:20:03.608Z,83
2019-03-30T04:21:03.331Z,83
2019-03-30T04:22:03.724Z,83
2019-03-30T04:23:03.541Z,83
2019-03-30T04:24:03.692Z,83
2019-03-30T04:25:03.945Z,83
2019-03-30T04:26:02.886Z,83
2019-03-30T04:27:03.668Z,83
2019-03-30T04:28:03.665Z,83
2019-03-30T04:29:03.781Z,83
2019-03-30T04:30:03.635Z,83
2019-03-30T04:31:03.371Z,83
2019-03-30T04:32:03.347Z,83
2019-03-30T04:33:03.601Z,83
2019-03-30T04:34:03.703Z,83
2019-03-30T04:35:03.927Z,83
2019-03-30T04:36:03.558Z,83
2019-03-30T04:37:02.701Z,83
2019-03-30T04:38:03.571Z,83
2019-03-30T04:39:03.781Z,83
2019-03-30T04:40:02.940Z,83
2019-03-30T04:41:03.507Z,83
2019-03-30T04:42:03.579Z,83
2019-03-30T04:43:03.369Z,83
2019-03-30T04:44:03.435Z,83
2019-03-30T04:45:03.206Z,83
2019-03-30T04:46:03.822Z,83
2019-03-30T04:47:03.496Z,83
2019-03-30T04:48:03.342Z,83
2019-03-30T04:49:03.407Z,83
2019-03-30T04:50:03.045Z,83
2019-03-30T04:51:03.708Z,83
2019-03-30T04:52:02.830Z,83
2019-03-30T04:53:02.933Z,83
2019-03-30T04:54:02.909Z,83
2019-03-30T04:55:02.957Z,83
2019-03-30T04:56:03.760Z,83
2019-03-30T04:57:02.750Z,83
2019-03-30T04:58:02.651Z,83
2019-03-30T04:59:02.821Z,83
2019-03-30T05:00:03.572Z,83
2019-03-30T05:01:03.027Z,83
2019-03-30T05:02:03.652Z,83
2019-03-30T05:03:02.944Z,83
2019-03-30T05:04:02.941Z,83
2019-03-30T05:05:03.035Z,83
2019-03-30T05:06:02.716Z,83
2019-03-30T05:07:02.986Z,83
2019-03-30T05:08:02.952Z,83
2019-03-30T05:09:02.770Z,83
2019-03-30T05:10:03.180Z,83
2019-03-30T05:11:03.718Z,83
2019-03-30T05:12:02.680Z,83
2019-03-30T05:13:03.494Z,83
2019-03-30T05:14:03.044Z,83
2019-03-30T05:15:02.951Z,83
2019-03-30T05:16:02.917Z,83
2019-03-30T05:17:03.820Z,83
2019-03-30T05:18:02.682Z,83
2019-03-30T05:19:02.763Z,83
2019-03-30T05:20:03.621Z,83
2019-03-30T05:21:02.785Z,83
2019-03-30T05:22:16.964Z,83
2019-03-30T05:23:03.607Z,83
2019-03-30T05:24:03.699Z,83
2019-03-30T05:25:03.138Z,83
2019-03-30T05:26:03.538Z,83
2019-03-30T05:27:03.698Z,83
2019-03-30T05:28:03.588Z,83
2019-03-30T05:29:03.685Z,83
2019-03-30T05:30:03.681Z,83
2019-03-30T05:31:03.142Z,83
2019-03-30T05:32:02.851Z,83
2019-03-30T05:33:06.843Z,83
2019-03-30T05:34:02.958Z,83
2019-03-30T05:35:03.087Z,83
2019-03-30T05:36:02.833Z,83
2019-03-30T05:37:02.787Z,83
2019-03-30T05:38:03.018Z,83
2019-03-30T05:39:02.854Z,83
2019-03-30T05:40:03.113Z,83
2019-03-30T05:41:02.752Z,83
2019-03-30T05:42:03.596Z,83
2019-03-30T05:43:03.571Z,83
2019-03-30T05:44:03.376Z,83
2019-03-30T05:45:03.948Z,83
2019-03-30T05:46:03.383Z,83
2019-03-30T05:47:03.736Z,83
2019-03-30T05:48:03.244Z,83
2019-03-30T05:49:03.770Z,83
2019-03-30T05:50:03.348Z,83
2019-03-30T05:51:03.622Z,83
2019-03-30T05:52:03.547Z,83
2019-03-30T05:53:03.448Z,83
2019-03-30T05:54:03.256Z,83
2019-03-30T05:55:03.727Z,83
2019-03-30T05:56:03.571Z,83
2019-03-30T05:57:03.318Z,83
2019-03-30T05:58:03.757Z,83
2019-03-30T05:59:03.152Z,83
2019-03-30T06:00:03.351Z,83
2019-03-30T06:01:03.374Z,83
2019-03-30T06:02:03.213Z,83
2019-03-30T06:03:03.131Z,83
2019-03-30T06:04:02.890Z,83
2019-03-30T06:05:04.053Z,83
2019-03-30T06:06:03.120Z,83
2019-03-30T06:07:03.129Z,83
2019-03-30T06:08:02.839Z,83
2019-03-30T06:09:03.586Z,83
2019-03-30T06:10:03.752Z,83
2019-03-30T06:11:03.311Z,83
2019-03-30T06:12:03.544Z,83
2019-03-30T06:13:03.602Z,83
2019-03-30T06:14:03.359Z,83
2019-03-30T06:15:03.578Z,83
2019-03-30T06:16:03.335Z,83
2019-03-30T06:17:03.303Z,83
2019-03-30T06:18:03.410Z,83
2019-03-30T06:19:02.907Z,83
2019-03-30T06:20:02.970Z,83
2019-03-30T06:21:02.849Z,83
2019-03-30T06:22:03.017Z,83
2019-03-30T06:23:03.014Z,83
2019-03-30T06:24:02.998Z,83
2019-03-30T06:25:03.632Z,83
2019-03-30T06:26:03.403Z,82
2019-03-30T06:27:03.495Z,82
2019-03-30T06:28:03.075Z,82
2019-03-30T06:29:02.901Z,82
2019-03-30T06:30:03.335Z,82
2019-03-30T06:31:03.484Z,82
2019-03-30T06:32:03.423Z,82
2019-03-30T06:33:03.323Z,82
2019-03-30T06:34:03.753Z,82
2019-03-30T06:35:03.268Z,82
2019-03-30T06:36:03.272Z,82
2019-03-30T06:37:03.691Z,82
2019-03-30T06:38:01.820Z,82
2019-03-30T06:39:03.394Z,82
2019-03-30T06:40:02.999Z,82
2019-03-30T06:41:03.419Z,82
2019-03-30T06:42:02.757Z,82
2019-03-30T06:43:03.661Z,82
2019-03-30T06:44:03.653Z,82
2019-03-30T06:45:03.538Z,82
2019-03-30T06:46:03.423Z,81
2019-03-30T06:47:03.582Z,81
2019-03-30T06:48:03.254Z,81
2019-03-30T06:49:02.901Z,81
2019-03-30T06:50:03.260Z,81
2019-03-30T06:51:03.001Z,81
2019-03-30T06:52:03.325Z,80
2019-03-30T06:53:03.425Z,80
2019-03-30T06:54:02.914Z,80
2019-03-30T06:55:03.673Z,80
2019-03-30T06:56:03.375Z,80
2019-03-30T06:57:03.527Z,80
2019-03-30T06:58:03.429Z,80
2019-03-30T06:59:03.290Z,80
2019-03-30T07:00:03.664Z,80
2019-03-30T07:01:03.694Z,80
2019-03-30T07:02:03.481Z,80
2019-03-30T07:03:03.075Z,80
2019-03-30T07:04:03.467Z,80
2019-03-30T07:05:03.512Z,80
2019-03-30T07:06:03.302Z,79
2019-03-30T07:07:03.513Z,79
2019-03-30T07:08:03.676Z,79
2019-03-30T07:09:03.579Z,79
2019-03-30T07:10:03.668Z,79
2019-03-30T07:11:03.617Z,79
2019-03-30T07:12:03.605Z,79
2019-03-30T07:13:03.455Z,79
2019-03-30T07:14:02.851Z,79
2019-03-30T07:15:03.301Z,79
2019-03-30T07:16:03.770Z,79
2019-03-30T07:17:03.496Z,79
2019-03-30T07:18:03.433Z,79
2019-03-30T07:19:03.463Z,79
2019-03-30T07:20:03.473Z,79
2019-03-30T07:21:03.704Z,79
2019-03-30T07:22:03.407Z,78
2019-03-30T07:23:13.157Z,78
2019-03-30T07:24:03.441Z,78
2019-03-30T07:25:03.753Z,78
2019-03-30T07:26:03.497Z,77
2019-03-30T07:27:03.195Z,77
2019-03-30T07:28:03.622Z,77
2019-03-30T07:29:03.365Z,77
2019-03-30T07:30:03.301Z,77
2019-03-30T07:31:03.312Z,77
2019-03-30T07:32:03.355Z,77
2019-03-30T07:33:03.350Z,77
2019-03-30T07:34:02.949Z,77
2019-03-30T07:35:03.376Z,77
2019-03-30T07:36:03.554Z,77
2019-03-30T07:37:03.578Z,77
2019-03-30T07:38:03.302Z,77
2019-03-30T07:39:02.728Z,77
2019-03-30T07:40:03.645Z,77
2019-03-30T07:41:03.507Z,77
2019-03-30T07:42:03.609Z,76
2019-03-30T07:43:03.321Z,76
2019-03-30T07:44:03.412Z,76
2019-03-30T07:45:03.472Z,76
2019-03-30T07:46:03.372Z,76
2019-03-30T07:47:03.350Z,76
2019-03-30T07:48:03.467Z,76
2019-03-30T07:49:03.749Z,75
2019-03-30T07:50:03.468Z,75
2019-03-30T07:51:03.273Z,75
2019-03-30T07:52:03.620Z,75
2019-03-30T07:53:03.341Z,75
2019-03-30T07:54:03.414Z,75
2019-03-30T07:55:03.425Z,75
2019-03-30T07:56:09.220Z,75
2019-03-30T07:57:17.654Z,75
2019-03-30T07:58:04.217Z,75
2019-03-30T07:59:03.273Z,75
2019-03-30T08:00:03.551Z,74
2019-03-30T08:01:03.258Z,74
2019-03-30T08:02:03.582Z,74
2019-03-30T08:03:03.547Z,74
2019-03-30T08:04:03.739Z,74
2019-03-30T08:05:03.513Z,73
2019-03-30T08:06:02.977Z,73
2019-03-30T08:07:03.500Z,73
2019-03-30T08:08:03.306Z,73
2019-03-30T08:09:03.646Z,73
2019-03-30T08:10:03.625Z,73
2019-03-30T08:11:03.447Z,72
2019-03-30T08:12:03.571Z,72
2019-03-30T08:13:03.599Z,72
2019-03-30T08:14:03.620Z,72
2019-03-30T08:15:03.783Z,72
2019-03-30T08:16:03.252Z,72
2019-03-30T08:17:03.527Z,71
2019-03-30T08:18:03.525Z,71
2019-03-30T08:19:03.688Z,72
2019-03-30T08:20:03.659Z,71
2019-03-30T08:21:02.849Z,71
2019-03-30T08:22:02.884Z,71
2019-03-30T08:23:03.031Z,71
2019-03-30T08:24:03.683Z,71
2019-03-30T08:25:02.942Z,71
2019-03-30T08:26:02.866Z,71
2019-03-30T08:27:03.238Z,71
2019-03-30T08:28:02.948Z,70
2019-03-30T08:29:02.577Z,70
2019-03-30T08:30:03.347Z,69
2019-03-30T08:31:02.863Z,69
2019-03-30T08:32:03.284Z,69
2019-03-30T08:33:03.580Z,69
2019-03-30T08:34:02.794Z,69
2019-03-30T08:35:03.696Z,69
2019-03-30T08:36:03.349Z,69
2019-03-30T08:37:03.528Z,68
2019-03-30T08:38:03.590Z,68
2019-03-30T08:39:03.506Z,68
2019-03-30T08:40:03.670Z,68
2019-03-30T08:41:03.708Z,68
2019-03-30T08:42:03.641Z,68
2019-03-30T08:43:02.909Z,68
2019-03-30T08:44:03.760Z,67
2019-03-30T08:45:03.958Z,67
2019-03-30T08:46:02.909Z,67
2019-03-30T08:47:02.952Z,67
2019-03-30T08:48:02.833Z,67
2019-03-30T08:49:03.104Z,67
2019-03-30T08:50:02.717Z,67
2019-03-30T08:51:02.959Z,67
2019-03-30T08:52:03.126Z,67
2019-03-30T08:53:02.872Z,66
2019-03-30T08:54:03.290Z,66
2019-03-30T08:55:03.339Z,66
2019-03-30T08:56:03.636Z,66
2019-03-30T08:57:03.357Z,66
2019-03-30T08:58:02.980Z,66
2019-03-30T08:59:02.857Z,66
2019-03-30T09:00:03.447Z,66
2019-03-30T09:01:03.459Z,65
2019-03-30T09:02:03.385Z,65
2019-03-30T09:03:02.664Z,65
2019-03-30T09:04:03.179Z,65
2019-03-30T09:05:03.051Z,65
2019-03-30T09:06:03.845Z,64
2019-03-30T09:07:03.403Z,64
2019-03-30T09:08:03.401Z,64
2019-03-30T09:09:02.948Z,64
2019-03-30T09:10:03.112Z,64
2019-03-30T09:11:03.260Z,64
2019-03-30T09:12:02.811Z,64
2019-03-30T09:13:02.941Z,64
2019-03-30T09:14:03.829Z,64
2019-03-30T09:15:03.279Z,64
2019-03-30T09:16:02.920Z,64
2019-03-30T09:17:02.646Z,64
2019-03-30T09:18:03.367Z,64
2019-03-30T09:19:03.190Z,64
2019-03-30T09:20:02.995Z,63
2019-03-30T09:21:03.365Z,63
2019-03-30T09:22:03.222Z,62
2019-03-30T09:23:03.129Z,62
2019-03-30T09:24:10.720Z,62
2019-03-30T09:25:03.376Z,62
2019-03-30T09:26:03.451Z,62
2019-03-30T09:27:03.040Z,62
2019-03-30T09:28:03.089Z,62
2019-03-30T09:29:03.539Z,61
2019-03-30T09:30:03.329Z,61
2019-03-30T09:31:03.091Z,61
2019-03-30T09:32:15.302Z,60
2019-03-30T09:33:03.336Z,60
2019-03-30T09:34:03.028Z,60
2019-03-30T09:35:03.259Z,60
2019-03-30T09:36:03.065Z,60
2019-03-30T09:37:02.942Z,60
2019-03-30T09:38:03.120Z,60
2019-03-30T09:39:02.913Z,60
2019-03-30T09:40:03.301Z,60
2019-03-30T09:41:03.172Z,59
2019-03-30T09:42:03.121Z,59
2019-03-30T09:43:03.742Z,59
2019-03-30T09:44:03.755Z,59
2019-03-30T09:45:03.744Z,59
2019-03-30T09:46:02.855Z,59
2019-03-30T09:47:03.708Z,59
2019-03-30T09:48:03.734Z,59
2019-03-30T09:49:03.959Z,59
2019-03-30T09:50:03.642Z,58
2019-03-30T09:51:03.300Z,58
2019-03-30T09:52:03.923Z,58
2019-03-30T09:53:02.727Z,57
2019-03-30T09:54:03.332Z,57
2019-03-30T09:55:03.116Z,57
2019-03-30T09:56:02.963Z,58
2019-03-30T09:57:03.210Z,58
2019-03-30T09:58:03.170Z,57
2019-03-30T09:59:02.886Z,57
2019-03-30T10:00:03.354Z,57
2019-03-30T10:01:02.786Z,57
2019-03-30T10:02:03.113Z,57
2019-03-30T10:03:06.569Z,57
2019-03-30T10:04:03.022Z,56
2019-03-30T10:05:02.840Z,56
2019-03-30T10:06:03.079Z,56
2019-03-30T10:07:02.997Z,55
2019-03-30T10:08:02.947Z,55
2019-03-30T10:09:03.783Z,55
2019-03-30T10:10:03.051Z,55
2019-03-30T10:11:03.097Z,55
2019-03-30T10:12:03.378Z,55
2019-03-30T10:13:03.249Z,55
2019-03-30T10:14:03.486Z,55
2019-03-30T10:15:03.507Z,55
2019-03-30T10:16:03.514Z,55
2019-03-30T10:17:03.954Z,54
2019-03-30T10:18:03.090Z,55
2019-03-30T10:19:03.788Z,54
2019-03-30T10:20:05.545Z,54
2019-03-30T10:21:03.656Z,54
2019-03-30T10:22:03.295Z,55
2019-03-30T10:23:03.330Z,54
2019-03-30T10:24:03.725Z,54
2019-03-30T10:25:02.658Z,54
2019-03-30T10:26:03.837Z,54
2019-03-30T10:27:02.944Z,54
2019-03-30T10:28:02.869Z,54
2019-03-30T10:29:03.741Z,53
2019-03-30T10:30:03.035Z,53
2019-03-30T10:31:02.977Z,53
2019-03-30T10:32:02.890Z,53
2019-03-30T10:33:03.709Z,53
2019-03-30T10:34:03.127Z,53
2019-03-30T10:35:02.986Z,52
2019-03-30T10:36:02.935Z,52
2019-03-30T10:37:02.722Z,52
2019-03-30T10:38:02.897Z,52
2019-03-30T10:39:02.878Z,52
2019-03-30T10:40:03.119Z,52
2019-03-30T10:41:02.835Z,52
2019-03-30T10:42:03.299Z,52
2019-03-30T10:43:02.967Z,52
2019-03-30T10:44:02.869Z,52
2019-03-30T10:45:03.236Z,51
2019-03-30T10:46:03.019Z,51
2019-03-30T10:47:02.923Z,51
2019-03-30T10:48:02.871Z,51
2019-03-30T10:49:02.994Z,51
2019-03-30T10:50:03.056Z,51
2019-03-30T10:51:03.110Z,51
2019-03-30T10:52:03.076Z,51
2019-03-30T10:53:03.136Z,50
2019-03-30T10:54:02.864Z,50
2019-03-30T10:55:03.385Z,51
2019-03-30T10:56:03.004Z,51
2019-03-30T10:57:02.861Z,50
2019-03-30T10:58:03.214Z,50
2019-03-30T10:59:03.695Z,50
2019-03-30T11:00:02.968Z,50
2019-03-30T11:01:02.743Z,50
2019-03-30T11:02:02.957Z,50
2019-03-30T11:03:02.928Z,50
2019-03-30T11:04:02.913Z,50
2019-03-30T11:05:02.685Z,50
2019-03-30T11:06:03.110Z,50
2019-03-30T11:07:03.455Z,50
2019-03-30T11:08:02.697Z,50
2019-03-30T11:09:03.095Z,49
2019-03-30T11:10:03.073Z,49
2019-03-30T11:11:03.696Z,49
2019-03-30T11:12:02.674Z,49
2019-03-30T11:13:03.142Z,49
2019-03-30T11:14:02.835Z,49
2019-03-30T11:15:03.071Z,49
2019-03-30T11:16:03.132Z,48
2019-03-30T11:17:02.900Z,48
2019-03-30T11:18:02.700Z,48
2019-03-30T11:19:03.240Z,48
2019-03-30T11:20:03.097Z,48
2019-03-30T11:21:03.059Z,47
2019-03-30T11:22:03.718Z,47
2019-03-30T11:23:03.063Z,47
2019-03-30T11:24:06.926Z,47
2019-03-30T11:25:09.319Z,47
2019-03-30T11:26:03.088Z,47
2019-03-30T11:27:02.931Z,47
2019-03-30T11:28:03.968Z,47
2019-03-30T11:29:02.877Z,47
2019-03-30T11:30:03.375Z,47
2019-03-30T11:31:05.952Z,47
2019-03-30T11:32:03.053Z,47
2019-03-30T11:33:02.925Z,47
2019-03-30T11:34:03.114Z,46
2019-03-30T11:35:02.973Z,46
2019-03-30T11:36:03.256Z,46
2019-03-30T11:37:02.917Z,46
2019-03-30T11:38:03.981Z,46
2019-03-30T11:39:03.814Z,46
2019-03-30T11:40:03.975Z,46
2019-03-30T11:41:03.955Z,46
2019-03-30T11:42:03.839Z,46
2019-03-30T11:43:02.704Z,46
2019-03-30T11:44:03.857Z,46
2019-03-30T11:45:03.438Z,45
2019-03-30T11:46:03.710Z,45
2019-03-30T11:47:03.722Z,45
2019-03-30T11:48:03.662Z,45
2019-03-30T11:49:02.976Z,45
2019-03-30T11:50:03.577Z,45
2019-03-30T11:51:02.973Z,45
2019-03-30T11:52:03.848Z,45
2019-03-30T11:53:02.768Z,45
2019-03-30T11:54:05.657Z,45
2019-03-30T11:55:03.812Z,45
2019-03-30T11:56:03.863Z,45
2019-03-30T11:57:02.939Z,45
2019-03-30T11:58:03.083Z,45
2019-03-30T11:59:03.901Z,45
2019-03-30T12:00:03.025Z,44
2019-03-30T12:01:03.817Z,45
2019-03-30T12:02:03.585Z,45
2019-03-30T12:03:03.867Z,45
2019-03-30T12:04:03.739Z,45
2019-03-30T12:05:03.002Z,45
2019-03-30T12:06:03.039Z,45
2019-03-30T12:07:03.110Z,45
2019-03-30T12:08:03.120Z,45
2019-03-30T12:09:03.000Z,46
2019-03-30T12:10:02.966Z,46
2019-03-30T12:11:02.955Z,45
2019-03-30T12:12:02.873Z,45
2019-03-30T12:13:03.600Z,45
2019-03-30T12:14:02.994Z,45
2019-03-30T12:15:02.979Z,45
2019-03-30T12:16:02.884Z,45
2019-03-30T12:17:03.022Z,45
2019-03-30T12:18:03.027Z,45
2019-03-30T12:19:03.091Z,45
2019-03-30T12:20:03.083Z,44
2019-03-30T12:21:02.982Z,44
2019-03-30T12:22:03.066Z,44
2019-03-30T12:23:03.078Z,44
2019-03-30T12:24:03.053Z,44
2019-03-30T12:25:03.121Z,44
2019-03-30T12:26:03.797Z,44
2019-03-30T12:27:02.927Z,44
2019-03-30T12:28:02.687Z,44
2019-03-30T12:29:03.915Z,44
2019-03-30T12:30:02.994Z,44
2019-03-30T12:31:02.878Z,44
2019-03-30T12:32:02.847Z,43
2019-03-30T12:33:03.810Z,43
2019-03-30T12:34:03.047Z,43
2019-03-30T12:35:03.236Z,43
2019-03-30T12:36:02.755Z,43
2019-03-30T12:37:03.712Z,43
2019-03-30T12:38:03.224Z,43
2019-03-30T12:39:03.077Z,43
2019-03-30T12:40:03.145Z,42
2019-03-30T12:41:03.089Z,43
2019-03-30T12:42:03.041Z,43
2019-03-30T12:43:03.106Z,43
2019-03-30T12:44:02.772Z,43
2019-03-30T12:45:03.352Z,43
2019-03-30T12:46:03.283Z,43
2019-03-30T12:47:02.799Z,43
2019-03-30T12:48:03.110Z,43
2019-03-30T12:49:03.504Z,42
2019-03-30T12:50:03.453Z,42
2019-03-30T12:51:03.647Z,42
2019-03-30T12:52:03.133Z,42
2019-03-30T12:53:03.391Z,42
2019-03-30T12:54:03.212Z,42
2019-03-30T12:55:03.226Z,42
2019-03-30T12:56:03.432Z,42
2019-03-30T12:57:03.028Z,42
2019-03-30T12:58:03.199Z,42
2019-03-30T12:59:03.374Z,42
2019-03-30T13:00:03.261Z,42
2019-03-30T13:01:03.256Z,42
2019-03-30T13:02:03.371Z,43
2019-03-30T13:03:02.983Z,43
2019-03-30T13:04:02.949Z,43
2019-03-30T13:05:03.146Z,43
2019-03-30T13:06:03.376Z,42
2019-03-30T13:07:02.903Z,42
2019-03-30T13:08:03.750Z,42
2019-03-30T13:09:03.135Z,42
2019-03-30T13:10:03.231Z,42
2019-03-30T13:11:02.969Z,42
2019-03-30T13:12:03.051Z,42
2019-03-30T13:13:03.299Z,42
2019-03-30T13:14:03.168Z,42
2019-03-30T13:15:03.184Z,42
2019-03-30T13:16:03.257Z,42
2019-03-30T13:17:03.440Z,42
2019-03-30T13:18:03.243Z,42
2019-03-30T13:19:03.568Z,42
2019-03-30T13:20:03.818Z,42
2019-03-30T13:21:03.714Z,42
2019-03-30T13:22:03.642Z,42
2019-03-30T13:23:02.964Z,43
2019-03-30T13:24:03.063Z,43
2019-03-30T13:25:03.023Z,43
2019-03-30T13:26:04.566Z,43
2019-03-30T13:27:03.070Z,43
2019-03-30T13:28:03.248Z,43
2019-03-30T13:29:03.720Z,43
2019-03-30T13:30:02.838Z,43
2019-03-30T13:31:03.811Z,43
2019-03-30T13:32:03.085Z,43
2019-03-30T13:33:03.261Z,43
2019-03-30T13:34:02.967Z,43
2019-03-30T13:35:03.455Z,43
2019-03-30T13:36:02.934Z,43
2019-03-30T13:37:03.085Z,43
2019-03-30T13:38:03.448Z,43
2019-03-30T13:39:03.452Z,43
2019-03-30T13:40:02.950Z,43
2019-03-30T13:41:03.463Z,43
2019-03-30T13:42:02.601Z,43
2019-03-30T13:43:03.826Z,42
2019-03-30T13:44:03.503Z,42
2019-03-30T13:45:04.175Z,42
2019-03-30T13:46:03.635Z,42
2019-03-30T13:47:03.613Z,42
2019-03-30T13:48:03.408Z,42
2019-03-30T13:49:03.472Z,42
2019-03-30T13:50:03.223Z,43
2019-03-30T13:51:03.321Z,43
2019-03-30T13:52:03.329Z,43
2019-03-30T13:53:03.572Z,43
2019-03-30T13:54:03.523Z,43
2019-03-30T13:55:03.550Z,43
2019-03-30T13:56:17.556Z,43
2019-03-30T13:57:03.251Z,44
2019-03-30T13:58:03.449Z,44
2019-03-30T13:59:02.890Z,44
2019-03-30T14:00:03.368Z,44
2019-03-30T14:01:02.969Z,44
2019-03-30T14:02:03.139Z,44
2019-03-30T14:03:02.833Z,43
2019-03-30T14:04:03.009Z,43
2019-03-30T14:05:03.449Z,43
2019-03-30T14:06:03.018Z,43
2019-03-30T14:07:03.259Z,44
2019-03-30T14:08:02.689Z,43
2019-03-30T14:09:02.810Z,43
2019-03-30T14:10:03.863Z,43
2019-03-30T14:11:02.721Z,43
2019-03-30T14:12:03.544Z,44
2019-03-30T14:13:03.696Z,44
2019-03-30T14:14:03.217Z,44
2019-03-30T14:15:03.795Z,44